TAF and METAR

Decoding for American and Canadian METARs and TAFs is not fully implemented.

Could not understand the following METAR

CYYU 311200Z 25006KT 15SM BKN110 05/M01 A3015 RMK AC7 SLP221

TAF for Kapuskasing Airport

TAF CYYU 310730Z 3108/3120 26007KT P6SM SCT015 BKN060 TEMPO 3108/3120 5SM -SHRA BR BKN015 RMK NXT FCST BY 311400Z
Report created 31. mai 09:30

between 31. mai 10:00 - 31. mai 22:00

wind 7 knots from W (260°)